sensor_id;sensor_type;location;lat;lon;timestamp;P1;durP1;ratioP1;P2;durP2;ratioP2
20318;SDS011;10317;47.254;11.314;2023-11-21T00:02:19;14.35;;;10.40;;
20318;SDS011;10317;47.254;11.314;2023-11-21T00:04:46;11.82;;;9.55;;
20318;SDS011;10317;47.254;11.314;2023-11-21T00:07:12;12.77;;;9.82;;
20318;SDS011;10317;47.254;11.314;2023-11-21T00:09:38;12.88;;;9.50;;
20318;SDS011;10317;47.254;11.314;2023-11-21T00:12:04;11.95;;;8.85;;
20318;SDS011;10317;47.254;11.314;2023-11-21T00:14:29;12.57;;;9.20;;
20318;SDS011;10317;47.254;11.314;2023-11-21T00:16:55;12.60;;;8.98;;
20318;SDS011;10317;47.254;11.314;2023-11-21T00:19:21;13.05;;;9.45;;
20318;SDS011;10317;47.254;11.314;2023-11-21T00:21:46;10.43;;;8.13;;
20318;SDS011;10317;47.254;11.314;2023-11-21T00:24:12;10.95;;;8.45;;
20318;SDS011;10317;47.254;11.314;2023-11-21T00:26:40;16.77;;;9.85;;
20318;SDS011;10317;47.254;11.314;2023-11-21T00:29:06;11.50;;;8.40;;
20318;SDS011;10317;47.254;11.314;2023-11-21T00:31:36;11.95;;;7.80;;
20318;SDS011;10317;47.254;11.314;2023-11-21T00:34:04;14.00;;;8.23;;
20318;SDS011;10317;47.254;11.314;2023-11-21T00:36:31;12.48;;;9.25;;
20318;SDS011;10317;47.254;11.314;2023-11-21T00:38:57;13.48;;;9.27;;
20318;SDS011;10317;47.254;11.314;2023-11-21T00:41:24;10.90;;;7.88;;
20318;SDS011;10317;47.254;11.314;2023-11-21T00:43:52;15.98;;;9.93;;
20318;SDS011;10317;47.254;11.314;2023-11-21T00:46:18;14.20;;;9.32;;
20318;SDS011;10317;47.254;11.314;2023-11-21T00:48:44;12.57;;;8.45;;
20318;SDS011;10317;47.254;11.314;2023-11-21T00:51:10;14.15;;;9.18;;
20318;SDS011;10317;47.254;11.314;2023-11-21T00:53:35;11.65;;;8.93;;
20318;SDS011;10317;47.254;11.314;2023-11-21T00:56:01;14.25;;;8.45;;
20318;SDS011;10317;47.254;11.314;2023-11-21T00:58:27;13.02;;;9.32;;
20318;SDS011;10317;47.254;11.314;2023-11-21T01:00:53;12.68;;;8.63;;
20318;SDS011;10317;47.254;11.314;2023-11-21T01:03:19;15.65;;;9.18;;
20318;SDS011;10317;47.254;11.314;2023-11-21T01:05:45;14.18;;;9.43;;
20318;SDS011;10317;47.254;11.314;2023-11-21T01:08:11;14.20;;;8.57;;
20318;SDS011;10317;47.254;11.314;2023-11-21T01:10:37;15.32;;;9.27;;
20318;SDS011;10317;47.254;11.314;2023-11-21T01:13:03;9.15;;;7.53;;
20318;SDS011;10317;47.254;11.314;2023-11-21T01:15:32;13.40;;;7.90;;
20318;SDS011;10317;47.254;11.314;2023-11-21T01:17:58;13.32;;;9.30;;
20318;SDS011;10317;47.254;11.314;2023-11-21T01:20:24;15.13;;;9.15;;
20318;SDS011;10317;47.254;11.314;2023-11-21T01:22:50;11.57;;;7.95;;
20318;SDS011;10317;47.254;11.314;2023-11-21T01:25:15;12.15;;;8.75;;
20318;SDS011;10317;47.254;11.314;2023-11-21T01:27:41;13.40;;;8.45;;
20318;SDS011;10317;47.254;11.314;2023-11-21T01:30:08;14.32;;;8.35;;
20318;SDS011;10317;47.254;11.314;2023-11-21T01:32:35;11.30;;;8.55;;
20318;SDS011;10317;47.254;11.314;2023-11-21T01:35:02;12.80;;;8.02;;
20318;SDS011;10317;47.254;11.314;2023-11-21T01:37:30;12.23;;;8.52;;
20318;SDS011;10317;47.254;11.314;2023-11-21T01:39:56;12.50;;;8.05;;
20318;SDS011;10317;47.254;11.314;2023-11-21T01:42:21;14.60;;;8.98;;
20318;SDS011;10317;47.254;11.314;2023-11-21T01:44:47;12.57;;;9.02;;
20318;SDS011;10317;47.254;11.314;2023-11-21T01:47:13;13.57;;;8.30;;
20318;SDS011;10317;47.254;11.314;2023-11-21T01:49:40;14.07;;;8.75;;
20318;SDS011;10317;47.254;11.314;2023-11-21T01:52:10;11.65;;;7.70;;
20318;SDS011;10317;47.254;11.314;2023-11-21T01:54:36;13.25;;;8.10;;
20318;SDS011;10317;47.254;11.314;2023-11-21T01:57:03;10.70;;;7.18;;
20318;SDS011;10317;47.254;11.314;2023-11-21T01:59:34;10.82;;;8.32;;
20318;SDS011;10317;47.254;11.314;2023-11-21T02:02:03;9.35;;;7.35;;
20318;SDS011;10317;47.254;11.314;2023-11-21T02:04:31;11.13;;;8.13;;
20318;SDS011;10317;47.254;11.314;2023-11-21T02:06:57;11.63;;;8.23;;
20318;SDS011;10317;47.254;11.314;2023-11-21T02:09:27;11.75;;;8.57;;
20318;SDS011;10317;47.254;11.314;2023-11-21T02:11:54;11.85;;;8.48;;
20318;SDS011;10317;47.254;11.314;2023-11-21T02:14:21;15.27;;;8.75;;
20318;SDS011;10317;47.254;11.314;2023-11-21T02:16:50;11.65;;;8.38;;
20318;SDS011;10317;47.254;11.314;2023-11-21T02:19:17;10.52;;;8.00;;
20318;SDS011;10317;47.254;11.314;2023-11-21T02:22:02;10.70;;;8.35;;
20318;SDS011;10317;47.254;11.314;2023-11-21T02:24:31;11.68;;;8.88;;
20318;SDS011;10317;47.254;11.314;2023-11-21T02:26:57;10.95;;;8.45;;
20318;SDS011;10317;47.254;11.314;2023-11-21T02:29:23;14.82;;;9.00;;
20318;SDS011;10317;47.254;11.314;2023-11-21T02:31:53;12.45;;;9.00;;
20318;SDS011;10317;47.254;11.314;2023-11-21T02:34:19;15.15;;;9.77;;
20318;SDS011;10317;47.254;11.314;2023-11-21T02:36:46;18.90;;;10.10;;
20318;SDS011;10317;47.254;11.314;2023-11-21T02:39:14;12.07;;;8.35;;
20318;SDS011;10317;47.254;11.314;2023-11-21T02:41:41;13.75;;;9.27;;
20318;SDS011;10317;47.254;11.314;2023-11-21T02:44:07;14.00;;;9.05;;
20318;SDS011;10317;47.254;11.314;2023-11-21T02:46:34;15.43;;;9.43;;
20318;SDS011;10317;47.254;11.314;2023-11-21T02:49:01;16.45;;;10.20;;
20318;SDS011;10317;47.254;11.314;2023-11-21T02:51:27;15.15;;;10.27;;
20318;SDS011;10317;47.254;11.314;2023-11-21T02:53:53;14.38;;;10.02;;
20318;SDS011;10317;47.254;11.314;2023-11-21T02:56:19;15.15;;;10.40;;
20318;SDS011;10317;47.254;11.314;2023-11-21T02:58:45;20.48;;;10.82;;
20318;SDS011;10317;47.254;11.314;2023-11-21T03:01:10;18.33;;;10.63;;
20318;SDS011;10317;47.254;11.314;2023-11-21T03:03:38;14.70;;;10.85;;
20318;SDS011;10317;47.254;11.314;2023-11-21T03:06:05;14.23;;;10.05;;
20318;SDS011;10317;47.254;11.314;2023-11-21T03:08:31;18.38;;;10.43;;
20318;SDS011;10317;47.254;11.314;2023-11-21T03:10:57;15.57;;;10.18;;
20318;SDS011;10317;47.254;11.314;2023-11-21T03:13:23;15.82;;;10.70;;
20318;SDS011;10317;47.254;11.314;2023-11-21T03:15:48;18.80;;;10.13;;
20318;SDS011;10317;47.254;11.314;2023-11-21T03:18:14;14.10;;;8.80;;
20318;SDS011;10317;47.254;11.314;2023-11-21T03:20:40;14.52;;;9.20;;
20318;SDS011;10317;47.254;11.314;2023-11-21T03:23:06;12.88;;;9.55;;
20318;SDS011;10317;47.254;11.314;2023-11-21T03:25:32;12.60;;;9.25;;
20318;SDS011;10317;47.254;11.314;2023-11-21T03:27:58;12.88;;;8.65;;
20318;SDS011;10317;47.254;11.314;2023-11-21T03:30:23;16.15;;;9.82;;
20318;SDS011;10317;47.254;11.314;2023-11-21T03:32:49;12.27;;;9.18;;
20318;SDS011;10317;47.254;11.314;2023-11-21T03:35:15;13.35;;;8.35;;
20318;SDS011;10317;47.254;11.314;2023-11-21T03:37:40;13.93;;;9.45;;
20318;SDS011;10317;47.254;11.314;2023-11-21T03:40:08;15.18;;;9.43;;
20318;SDS011;10317;47.254;11.314;2023-11-21T03:42:34;13.50;;;8.90;;
20318;SDS011;10317;47.254;11.314;2023-11-21T03:45:00;11.33;;;8.60;;
20318;SDS011;10317;47.254;11.314;2023-11-21T03:47:26;17.55;;;10.10;;
20318;SDS011;10317;47.254;11.314;2023-11-21T03:49:52;14.38;;;9.50;;
20318;SDS011;10317;47.254;11.314;2023-11-21T03:52:18;14.65;;;10.00;;
20318;SDS011;10317;47.254;11.314;2023-11-21T03:54:44;12.77;;;9.02;;
20318;SDS011;10317;47.254;11.314;2023-11-21T03:57:09;14.25;;;9.55;;
20318;SDS011;10317;47.254;11.314;2023-11-21T03:59:35;17.77;;;8.90;;
20318;SDS011;10317;47.254;11.314;2023-11-21T04:02:04;14.25;;;8.23;;
20318;SDS011;10317;47.254;11.314;2023-11-21T04:04:30;13.35;;;8.20;;
20318;SDS011;10317;47.254;11.314;2023-11-21T04:06:55;14.02;;;8.98;;
20318;SDS011;10317;47.254;11.314;2023-11-21T04:09:21;13.93;;;9.23;;
20318;SDS011;10317;47.254;11.314;2023-11-21T04:11:50;13.02;;;9.38;;
20318;SDS011;10317;47.254;11.314;2023-11-21T04:14:18;11.90;;;7.90;;
20318;SDS011;10317;47.254;11.314;2023-11-21T04:16:44;13.75;;;9.32;;
20318;SDS011;10317;47.254;11.314;2023-11-21T04:19:10;16.17;;;9.30;;
20318;SDS011;10317;47.254;11.314;2023-11-21T04:21:38;10.80;;;7.25;;
20318;SDS011;10317;47.254;11.314;2023-11-21T04:24:04;13.48;;;9.45;;
20318;SDS011;10317;47.254;11.314;2023-11-21T04:26:31;11.60;;;9.05;;
20318;SDS011;10317;47.254;11.314;2023-11-21T04:28:56;12.73;;;8.65;;
20318;SDS011;10317;47.254;11.314;2023-11-21T04:31:22;12.02;;;8.57;;
20318;SDS011;10317;47.254;11.314;2023-11-21T04:33:48;10.30;;;7.88;;
20318;SDS011;10317;47.254;11.314;2023-11-21T04:36:14;12.45;;;8.45;;
20318;SDS011;10317;47.254;11.314;2023-11-21T04:38:39;14.93;;;9.20;;
20318;SDS011;10317;47.254;11.314;2023-11-21T04:41:06;14.10;;;9.65;;
20318;SDS011;10317;47.254;11.314;2023-11-21T04:43:31;11.93;;;8.48;;
20318;SDS011;10317;47.254;11.314;2023-11-21T04:45:57;12.60;;;8.20;;
20318;SDS011;10317;47.254;11.314;2023-11-21T04:48:23;11.77;;;8.00;;
20318;SDS011;10317;47.254;11.314;2023-11-21T04:50:48;12.88;;;8.63;;
20318;SDS011;10317;47.254;11.314;2023-11-21T04:53:14;9.65;;;7.10;;
20318;SDS011;10317;47.254;11.314;2023-11-21T04:55:40;13.10;;;8.77;;
20318;SDS011;10317;47.254;11.314;2023-11-21T04:58:06;12.18;;;8.02;;
20318;SDS011;10317;47.254;11.314;2023-11-21T05:00:33;11.90;;;8.25;;
20318;SDS011;10317;47.254;11.314;2023-11-21T05:02:59;18.10;;;9.57;;
20318;SDS011;10317;47.254;11.314;2023-11-21T05:05:26;13.30;;;9.00;;
20318;SDS011;10317;47.254;11.314;2023-11-21T05:07:52;10.73;;;7.90;;
20318;SDS011;10317;47.254;11.314;2023-11-21T05:10:18;10.38;;;8.38;;
20318;SDS011;10317;47.254;11.314;2023-11-21T05:12:45;14.18;;;8.75;;
20318;SDS011;10317;47.254;11.314;2023-11-21T05:15:13;12.88;;;8.45;;
20318;SDS011;10317;47.254;11.314;2023-11-21T05:17:40;11.57;;;8.73;;
20318;SDS011;10317;47.254;11.314;2023-11-21T05:20:12;11.23;;;9.20;;
20318;SDS011;10317;47.254;11.314;2023-11-21T05:22:39;11.30;;;7.97;;
20318;SDS011;10317;47.254;11.314;2023-11-21T05:25:07;11.88;;;9.07;;
20318;SDS011;10317;47.254;11.314;2023-11-21T05:27:33;13.98;;;9.02;;
20318;SDS011;10317;47.254;11.314;2023-11-21T05:30:00;11.88;;;7.93;;
20318;SDS011;10317;47.254;11.314;2023-11-21T05:32:27;12.85;;;8.30;;
20318;SDS011;10317;47.254;11.314;2023-11-21T05:34:53;13.02;;;7.95;;
20318;SDS011;10317;47.254;11.314;2023-11-21T05:37:19;12.52;;;8.93;;
20318;SDS011;10317;47.254;11.314;2023-11-21T05:39:44;15.80;;;8.32;;
20318;SDS011;10317;47.254;11.314;2023-11-21T05:42:10;10.98;;;8.05;;
20318;SDS011;10317;47.254;11.314;2023-11-21T05:44:36;12.95;;;8.27;;
20318;SDS011;10317;47.254;11.314;2023-11-21T05:47:02;13.98;;;8.68;;
20318;SDS011;10317;47.254;11.314;2023-11-21T05:49:28;12.32;;;7.85;;
20318;SDS011;10317;47.254;11.314;2023-11-21T05:51:56;15.80;;;8.52;;
20318;SDS011;10317;47.254;11.314;2023-11-21T05:54:22;13.30;;;8.00;;
20318;SDS011;10317;47.254;11.314;2023-11-21T05:56:48;11.45;;;7.90;;
20318;SDS011;10317;47.254;11.314;2023-11-21T05:59:14;11.70;;;7.60;;
20318;SDS011;10317;47.254;11.314;2023-11-21T06:01:40;9.90;;;7.28;;
20318;SDS011;10317;47.254;11.314;2023-11-21T06:04:06;13.52;;;8.35;;
20318;SDS011;10317;47.254;11.314;2023-11-21T06:06:34;10.70;;;7.55;;
20318;SDS011;10317;47.254;11.314;2023-11-21T06:09:00;9.82;;;7.70;;
20318;SDS011;10317;47.254;11.314;2023-11-21T06:11:26;12.07;;;7.95;;
20318;SDS011;10317;47.254;11.314;2023-11-21T06:13:52;12.40;;;7.65;;
20318;SDS011;10317;47.254;11.314;2023-11-21T06:16:18;13.48;;;8.65;;
20318;SDS011;10317;47.254;11.314;2023-11-21T06:18:47;9.63;;;7.72;;
20318;SDS011;10317;47.254;11.314;2023-11-21T06:21:13;16.48;;;8.27;;
20318;SDS011;10317;47.254;11.314;2023-11-21T06:23:39;12.30;;;8.57;;
20318;SDS011;10317;47.254;11.314;2023-11-21T06:26:06;9.88;;;7.20;;
20318;SDS011;10317;47.254;11.314;2023-11-21T06:28:31;13.93;;;7.85;;
20318;SDS011;10317;47.254;11.314;2023-11-21T06:30:57;15.50;;;8.23;;
20318;SDS011;10317;47.254;11.314;2023-11-21T06:33:23;11.05;;;8.35;;
20318;SDS011;10317;47.254;11.314;2023-11-21T06:35:52;12.30;;;8.70;;
20318;SDS011;10317;47.254;11.314;2023-11-21T06:38:18;12.88;;;8.90;;
20318;SDS011;10317;47.254;11.314;2023-11-21T06:40:44;17.38;;;10.32;;
20318;SDS011;10317;47.254;11.314;2023-11-21T06:43:10;20.27;;;9.50;;
20318;SDS011;10317;47.254;11.314;2023-11-21T06:45:36;13.73;;;7.90;;
20318;SDS011;10317;47.254;11.314;2023-11-21T06:48:02;11.98;;;8.13;;
20318;SDS011;10317;47.254;11.314;2023-11-21T06:50:27;13.45;;;8.43;;
20318;SDS011;10317;47.254;11.314;2023-11-21T06:52:53;12.75;;;8.52;;
20318;SDS011;10317;47.254;11.314;2023-11-21T06:55:19;12.18;;;7.72;;
20318;SDS011;10317;47.254;11.314;2023-11-21T06:57:44;13.75;;;8.57;;
20318;SDS011;10317;47.254;11.314;2023-11-21T07:00:11;9.20;;;7.10;;
20318;SDS011;10317;47.254;11.314;2023-11-21T07:02:38;9.65;;;6.88;;
20318;SDS011;10317;47.254;11.314;2023-11-21T07:05:04;11.25;;;7.38;;
20318;SDS011;10317;47.254;11.314;2023-11-21T07:07:30;11.25;;;7.38;;
20318;SDS011;10317;47.254;11.314;2023-11-21T07:09:56;12.70;;;7.10;;
20318;SDS011;10317;47.254;11.314;2023-11-21T07:12:22;9.68;;;6.38;;
20318;SDS011;10317;47.254;11.314;2023-11-21T07:14:50;12.13;;;9.07;;
20318;SDS011;10317;47.254;11.314;2023-11-21T07:17:16;11.05;;;7.40;;
20318;SDS011;10317;47.254;11.314;2023-11-21T07:19:42;11.30;;;7.57;;
20318;SDS011;10317;47.254;11.314;2023-11-21T07:22:08;20.73;;;11.30;;
20318;SDS011;10317;47.254;11.314;2023-11-21T07:24:34;12.98;;;7.82;;
20318;SDS011;10317;47.254;11.314;2023-11-21T07:27:00;7.97;;;6.43;;
20318;SDS011;10317;47.254;11.314;2023-11-21T07:29:26;8.15;;;6.63;;
20318;SDS011;10317;47.254;11.314;2023-11-21T07:31:52;11.30;;;6.63;;
20318;SDS011;10317;47.254;11.314;2023-11-21T07:34:19;10.45;;;6.20;;
20318;SDS011;10317;47.254;11.314;2023-11-21T07:36:45;9.27;;;6.95;;
20318;SDS011;10317;47.254;11.314;2023-11-21T07:39:11;13.88;;;7.65;;
20318;SDS011;10317;47.254;11.314;2023-11-21T07:41:37;8.65;;;6.65;;
20318;SDS011;10317;47.254;11.314;2023-11-21T07:44:09;11.45;;;7.38;;
20318;SDS011;10317;47.254;11.314;2023-11-21T07:46:35;12.40;;;7.65;;
20318;SDS011;10317;47.254;11.314;2023-11-21T07:49:01;8.85;;;6.80;;
20318;SDS011;10317;47.254;11.314;2023-11-21T07:51:27;8.75;;;7.00;;
20318;SDS011;10317;47.254;11.314;2023-11-21T07:53:53;10.30;;;7.85;;
20318;SDS011;10317;47.254;11.314;2023-11-21T07:56:19;13.20;;;7.82;;
20318;SDS011;10317;47.254;11.314;2023-11-21T07:58:45;9.77;;;6.88;;
20318;SDS011;10317;47.254;11.314;2023-11-21T08:01:10;9.55;;;7.03;;
20318;SDS011;10317;47.254;11.314;2023-11-21T08:03:37;10.63;;;7.95;;
20318;SDS011;10317;47.254;11.314;2023-11-21T08:06:02;6.70;;;5.78;;
20318;SDS011;10317;47.254;11.314;2023-11-21T08:08:30;12.10;;;6.70;;
20318;SDS011;10317;47.254;11.314;2023-11-21T08:10:57;8.00;;;7.15;;
20318;SDS011;10317;47.254;11.314;2023-11-21T08:13:23;10.30;;;7.65;;
20318;SDS011;10317;47.254;11.314;2023-11-21T08:15:56;11.13;;;7.07;;
20318;SDS011;10317;47.254;11.314;2023-11-21T08:18:26;7.60;;;6.40;;
20318;SDS011;10317;47.254;11.314;2023-11-21T08:20:52;10.32;;;6.70;;
20318;SDS011;10317;47.254;11.314;2023-11-21T08:23:20;8.18;;;7.13;;
20318;SDS011;10317;47.254;11.314;2023-11-21T08:25:46;10.07;;;6.32;;
20318;SDS011;10317;47.254;11.314;2023-11-21T08:28:12;9.25;;;7.00;;
20318;SDS011;10317;47.254;11.314;2023-11-21T08:30:39;10.50;;;7.65;;
20318;SDS011;10317;47.254;11.314;2023-11-21T08:33:06;10.43;;;7.38;;
20318;SDS011;10317;47.254;11.314;2023-11-21T08:35:33;12.30;;;7.35;;
20318;SDS011;10317;47.254;11.314;2023-11-21T08:37:59;10.05;;;7.55;;
20318;SDS011;10317;47.254;11.314;2023-11-21T08:40:25;10.80;;;7.45;;
20318;SDS011;10317;47.254;11.314;2023-11-21T08:42:50;7.88;;;6.65;;
20318;SDS011;10317;47.254;11.314;2023-11-21T08:45:17;10.45;;;7.47;;
20318;SDS011;10317;47.254;11.314;2023-11-21T08:47:43;9.80;;;7.22;;
20318;SDS011;10317;47.254;11.314;2023-11-21T08:50:09;9.55;;;6.68;;
20318;SDS011;10317;47.254;11.314;2023-11-21T08:52:37;9.15;;;6.82;;
20318;SDS011;10317;47.254;11.314;2023-11-21T08:55:07;7.20;;;6.32;;
20318;SDS011;10317;47.254;11.314;2023-11-21T08:57:33;13.00;;;7.80;;
20318;SDS011;10317;47.254;11.314;2023-11-21T09:00:00;9.60;;;6.60;;
20318;SDS011;10317;47.254;11.314;2023-11-21T09:02:26;12.65;;;8.48;;
20318;SDS011;10317;47.254;11.314;2023-11-21T09:04:52;10.43;;;7.47;;
20318;SDS011;10317;47.254;11.314;2023-11-21T09:07:21;10.95;;;7.97;;
20318;SDS011;10317;47.254;11.314;2023-11-21T09:09:47;9.43;;;7.78;;
20318;SDS011;10317;47.254;11.314;2023-11-21T09:12:13;11.00;;;7.97;;
20318;SDS011;10317;47.254;11.314;2023-11-21T09:14:39;10.45;;;8.02;;
20318;SDS011;10317;47.254;11.314;2023-11-21T09:17:05;11.50;;;8.48;;
20318;SDS011;10317;47.254;11.314;2023-11-21T09:19:36;10.13;;;7.55;;
20318;SDS011;10317;47.254;11.314;2023-11-21T09:22:02;10.15;;;7.35;;
20318;SDS011;10317;47.254;11.314;2023-11-21T09:24:28;12.82;;;8.60;;
20318;SDS011;10317;47.254;11.314;2023-11-21T09:26:55;12.80;;;8.77;;
20318;SDS011;10317;47.254;11.314;2023-11-21T09:29:20;14.70;;;9.10;;
20318;SDS011;10317;47.254;11.314;2023-11-21T09:31:47;13.07;;;9.60;;
20318;SDS011;10317;47.254;11.314;2023-11-21T09:34:12;12.45;;;9.75;;
20318;SDS011;10317;47.254;11.314;2023-11-21T09:36:38;13.13;;;8.55;;
20318;SDS011;10317;47.254;11.314;2023-11-21T09:39:04;13.85;;;8.80;;
20318;SDS011;10317;47.254;11.314;2023-11-21T09:41:43;12.38;;;9.70;;
20318;SDS011;10317;47.254;11.314;2023-11-21T09:44:20;10.77;;;8.68;;
20318;SDS011;10317;47.254;11.314;2023-11-21T09:46:53;13.48;;;9.32;;
20318;SDS011;10317;47.254;11.314;2023-11-21T09:49:22;12.05;;;8.88;;
20318;SDS011;10317;47.254;11.314;2023-11-21T09:51:53;8.63;;;7.72;;
20318;SDS011;10317;47.254;11.314;2023-11-21T09:54:23;10.88;;;7.40;;
20318;SDS011;10317;47.254;11.314;2023-11-21T09:56:50;8.73;;;7.20;;
20318;SDS011;10317;47.254;11.314;2023-11-21T09:59:16;8.00;;;6.70;;
20318;SDS011;10317;47.254;11.314;2023-11-21T10:01:42;12.60;;;6.97;;
20318;SDS011;10317;47.254;11.314;2023-11-21T10:04:08;8.73;;;6.53;;
20318;SDS011;10317;47.254;11.314;2023-11-21T10:06:38;8.00;;;5.90;;
20318;SDS011;10317;47.254;11.314;2023-11-21T10:09:06;7.70;;;6.25;;
20318;SDS011;10317;47.254;11.314;2023-11-21T10:11:40;6.68;;;5.97;;
20318;SDS011;10317;47.254;11.314;2023-11-21T10:14:07;9.32;;;5.70;;
20318;SDS011;10317;47.254;11.314;2023-11-21T10:16:35;5.60;;;5.10;;
20318;SDS011;10317;47.254;11.314;2023-11-21T10:19:03;6.38;;;5.10;;
20318;SDS011;10317;47.254;11.314;2023-11-21T10:21:31;4.80;;;4.40;;
20318;SDS011;10317;47.254;11.314;2023-11-21T10:23:58;5.35;;;4.57;;
20318;SDS011;10317;47.254;11.314;2023-11-21T10:26:23;5.53;;;5.03;;
20318;SDS011;10317;47.254;11.314;2023-11-21T10:29:02;5.90;;;4.57;;
20318;SDS011;10317;47.254;11.314;2023-11-21T10:31:31;8.48;;;5.10;;
20318;SDS011;10317;47.254;11.314;2023-11-21T10:36:45;8.95;;;5.72;;
20318;SDS011;10317;47.254;11.314;2023-11-21T10:39:14;10.32;;;6.18;;
20318;SDS011;10317;47.254;11.314;2023-11-21T10:41:44;8.40;;;5.45;;
20318;SDS011;10317;47.254;11.314;2023-11-21T10:44:13;6.38;;;5.28;;
20318;SDS011;10317;47.254;11.314;2023-11-21T10:46:49;6.43;;;5.50;;
20318;SDS011;10317;47.254;11.314;2023-11-21T10:49:19;8.15;;;6.13;;
20318;SDS011;10317;47.254;11.314;2023-11-21T10:51:45;7.18;;;5.70;;
20318;SDS011;10317;47.254;11.314;2023-11-21T10:54:17;8.30;;;5.88;;
20318;SDS011;10317;47.254;11.314;2023-11-21T10:56:43;7.32;;;5.95;;
20318;SDS011;10317;47.254;11.314;2023-11-21T10:59:10;6.82;;;5.78;;
20318;SDS011;10317;47.254;11.314;2023-11-21T11:01:40;6.35;;;5.75;;
20318;SDS011;10317;47.254;11.314;2023-11-21T11:04:08;8.32;;;5.75;;
20318;SDS011;10317;47.254;11.314;2023-11-21T11:06:40;11.38;;;5.82;;
20318;SDS011;10317;47.254;11.314;2023-11-21T11:09:06;9.70;;;6.35;;
20318;SDS011;10317;47.254;11.314;2023-11-21T11:11:33;7.60;;;5.95;;
20318;SDS011;10317;47.254;11.314;2023-11-21T11:14:04;7.28;;;5.80;;
20318;SDS011;10317;47.254;11.314;2023-11-21T11:16:29;6.13;;;5.43;;
20318;SDS011;10317;47.254;11.314;2023-11-21T11:18:55;5.78;;;5.28;;
20318;SDS011;10317;47.254;11.314;2023-11-21T11:21:30;7.18;;;5.47;;
20318;SDS011;10317;47.254;11.314;2023-11-21T11:29:35;8.05;;;5.32;;
20318;SDS011;10317;47.254;11.314;2023-11-21T11:32:36;7.28;;;5.55;;
20318;SDS011;10317;47.254;11.314;2023-11-21T11:35:34;7.10;;;5.72;;
20318;SDS011;10317;47.254;11.314;2023-11-21T11:38:12;8.45;;;6.20;;
20318;SDS011;10317;47.254;11.314;2023-11-21T11:40:39;7.90;;;5.55;;
20318;SDS011;10317;47.254;11.314;2023-11-21T11:43:06;7.25;;;6.43;;
20318;SDS011;10317;47.254;11.314;2023-11-21T11:45:33;7.15;;;5.53;;
20318;SDS011;10317;47.254;11.314;2023-11-21T11:48:01;7.20;;;5.20;;
20318;SDS011;10317;47.254;11.314;2023-11-21T11:50:28;11.93;;;7.43;;
20318;SDS011;10317;47.254;11.314;2023-11-21T11:52:55;9.90;;;7.18;;
20318;SDS011;10317;47.254;11.314;2023-11-21T11:55:36;8.18;;;6.85;;
20318;SDS011;10317;47.254;11.314;2023-11-21T11:58:04;10.70;;;6.40;;
20318;SDS011;10317;47.254;11.314;2023-11-21T12:00:34;9.07;;;8.18;;
20318;SDS011;10317;47.254;11.314;2023-11-21T12:03:05;10.60;;;8.10;;
20318;SDS011;10317;47.254;11.314;2023-11-21T12:05:32;8.60;;;6.25;;
20318;SDS011;10317;47.254;11.314;2023-11-21T12:08:07;10.18;;;7.50;;
20318;SDS011;10317;47.254;11.314;2023-11-21T12:10:33;13.50;;;8.40;;
20318;SDS011;10317;47.254;11.314;2023-11-21T12:13:01;10.98;;;7.97;;
20318;SDS011;10317;47.254;11.314;2023-11-21T12:15:35;9.73;;;8.70;;
20318;SDS011;10317;47.254;11.314;2023-11-21T12:18:02;10.48;;;8.10;;
20318;SDS011;10317;47.254;11.314;2023-11-21T12:20:29;12.77;;;8.15;;
20318;SDS011;10317;47.254;11.314;2023-11-21T12:22:58;10.35;;;8.20;;
20318;SDS011;10317;47.254;11.314;2023-11-21T12:25:26;9.00;;;7.75;;
20318;SDS011;10317;47.254;11.314;2023-11-21T12:27:53;11.55;;;7.95;;
20318;SDS011;10317;47.254;11.314;2023-11-21T12:30:21;9.88;;;7.93;;
20318;SDS011;10317;47.254;11.314;2023-11-21T12:32:52;11.32;;;8.63;;
20318;SDS011;10317;47.254;11.314;2023-11-21T12:35:22;15.95;;;9.50;;
20318;SDS011;10317;47.254;11.314;2023-11-21T12:37:50;10.98;;;8.60;;
20318;SDS011;10317;47.254;11.314;2023-11-21T12:40:17;9.07;;;7.35;;
20318;SDS011;10317;47.254;11.314;2023-11-21T12:42:44;10.57;;;7.68;;
20318;SDS011;10317;47.254;11.314;2023-11-21T12:47:49;9.68;;;7.97;;
20318;SDS011;10317;47.254;11.314;2023-11-21T12:50:18;11.65;;;7.88;;
20318;SDS011;10317;47.254;11.314;2023-11-21T12:52:54;10.60;;;8.43;;
20318;SDS011;10317;47.254;11.314;2023-11-21T12:55:24;11.82;;;7.45;;
20318;SDS011;10317;47.254;11.314;2023-11-21T12:57:54;11.25;;;7.88;;
20318;SDS011;10317;47.254;11.314;2023-11-21T13:00:28;10.65;;;8.30;;
20318;SDS011;10317;47.254;11.314;2023-11-21T13:02:57;8.13;;;7.30;;
20318;SDS011;10317;47.254;11.314;2023-11-21T13:05:30;9.80;;;7.60;;
20318;SDS011;10317;47.254;11.314;2023-11-21T13:08:02;11.88;;;7.70;;
20318;SDS011;10317;47.254;11.314;2023-11-21T13:10:29;9.30;;;7.10;;
20318;SDS011;10317;47.254;11.314;2023-11-21T13:13:00;13.88;;;8.30;;
20318;SDS011;10317;47.254;11.314;2023-11-21T13:15:27;13.20;;;8.60;;
20318;SDS011;10317;47.254;11.314;2023-11-21T13:17:53;12.82;;;8.48;;
20318;SDS011;10317;47.254;11.314;2023-11-21T13:20:21;6.88;;;4.72;;
20318;SDS011;10317;47.254;11.314;2023-11-21T13:22:53;5.97;;;3.70;;
20318;SDS011;10317;47.254;11.314;2023-11-21T13:25:27;5.43;;;3.88;;
20318;SDS011;10317;47.254;11.314;2023-11-21T13:30:19;3.38;;;2.95;;
20318;SDS011;10317;47.254;11.314;2023-11-21T13:33:01;2.88;;;2.58;;
20318;SDS011;10317;47.254;11.314;2023-11-21T13:35:39;3.00;;;2.72;;
20318;SDS011;10317;47.254;11.314;2023-11-21T13:38:11;5.28;;;3.22;;
20318;SDS011;10317;47.254;11.314;2023-11-21T13:40:39;4.40;;;3.15;;
20318;SDS011;10317;47.254;11.314;2023-11-21T13:43:11;3.42;;;3.13;;
20318;SDS011;10317;47.254;11.314;2023-11-21T13:45:38;4.05;;;3.08;;
20318;SDS011;10317;47.254;11.314;2023-11-21T13:48:05;3.97;;;3.05;;
20318;SDS011;10317;47.254;11.314;2023-11-21T13:50:38;3.13;;;2.85;;
20318;SDS011;10317;47.254;11.314;2023-11-21T13:53:21;6.47;;;3.60;;
20318;SDS011;10317;47.254;11.314;2023-11-21T13:55:48;3.30;;;2.75;;
20318;SDS011;10317;47.254;11.314;2023-11-21T13:58:19;4.65;;;2.85;;
20318;SDS011;10317;47.254;11.314;2023-11-21T14:00:49;3.30;;;3.00;;
20318;SDS011;10317;47.254;11.314;2023-11-21T14:03:22;2.97;;;2.67;;
20318;SDS011;10317;47.254;11.314;2023-11-21T14:05:50;2.65;;;2.40;;
20318;SDS011;10317;47.254;11.314;2023-11-21T14:08:19;2.25;;;2.08;;
20318;SDS011;10317;47.254;11.314;2023-11-21T14:10:49;2.80;;;2.60;;
20318;SDS011;10317;47.254;11.314;2023-11-21T14:13:22;2.70;;;2.42;;
20318;SDS011;10317;47.254;11.314;2023-11-21T14:15:49;2.20;;;2.00;;
20318;SDS011;10317;47.254;11.314;2023-11-21T14:18:22;2.22;;;2.03;;
20318;SDS011;10317;47.254;11.314;2023-11-21T14:21:11;4.05;;;2.38;;
20318;SDS011;10317;47.254;11.314;2023-11-21T14:23:39;2.20;;;2.10;;
20318;SDS011;10317;47.254;11.314;2023-11-21T14:26:05;4.10;;;2.15;;
20318;SDS011;10317;47.254;11.314;2023-11-21T14:28:32;2.47;;;2.38;;
20318;SDS011;10317;47.254;11.314;2023-11-21T14:31:00;1.90;;;1.80;;
20318;SDS011;10317;47.254;11.314;2023-11-21T14:33:25;2.28;;;1.98;;
20318;SDS011;10317;47.254;11.314;2023-11-21T14:35:51;2.05;;;1.95;;
20318;SDS011;10317;47.254;11.314;2023-11-21T14:38:17;1.90;;;1.80;;
20318;SDS011;10317;47.254;11.314;2023-11-21T14:40:43;3.95;;;1.70;;
20318;SDS011;10317;47.254;11.314;2023-11-21T14:43:08;2.00;;;1.80;;